createdAt,value
2024-05-09T00:00:22.043Z,98820.47
2024-05-09T00:05:31.657Z,98922.97
2024-05-09T00:10:38.935Z,98965.94
2024-05-09T00:15:47.689Z,98906.69
2024-05-09T00:20:52.857Z,98909.06
2024-05-09T00:25:58.124Z,98964.97
2024-05-09T00:31:05.998Z,98895.31
2024-05-09T00:36:11.191Z,98794.56
2024-05-09T00:41:19.014Z,98952.75
2024-05-09T00:46:27.643Z,98936.03
2024-05-09T00:51:32.766Z,98895.25
2024-05-09T00:56:38.275Z,98938.75
2024-05-09T01:01:48.377Z,98944.63
2024-05-09T01:06:53.643Z,98888.34
2024-05-09T01:11:58.860Z,98941.94
2024-05-09T01:17:07.353Z,98808.03
2024-05-09T01:22:12.551Z,98904.75
2024-05-09T01:27:21.174Z,98866.28
2024-05-09T01:32:26.479Z,98904.22
2024-05-09T01:37:31.733Z,98944.38
2024-05-09T01:42:39.483Z,98934.81
2024-05-09T01:47:44.823Z,98944.94
2024-05-09T01:52:50.094Z,98723.09
2024-05-09T01:57:57.887Z,98941.41
2024-05-09T02:03:03.306Z,98876.81
2024-05-09T02:08:09.628Z,98943.78
2024-05-09T02:13:18.108Z,98785.13
2024-05-09T02:18:23.771Z,98912.25
2024-05-09T02:23:29.154Z,98919.13
2024-05-09T02:28:37.084Z,98876.06
2024-05-09T02:33:42.372Z,98868.72
2024-05-09T02:38:47.784Z,98949.66
2024-05-09T02:43:55.633Z,98955.84
2024-05-09T02:49:00.886Z,98953.78
2024-05-09T02:54:07.712Z,98718.78
2024-05-09T02:59:16.022Z,98956.53
2024-05-09T03:04:21.531Z,98791.13
2024-05-09T03:09:26.939Z,98953.97
2024-05-09T03:14:34.725Z,98955.25
2024-05-09T03:19:40.144Z,98929.25
2024-05-09T03:24:45.322Z,98820.84
2024-05-09T03:29:53.316Z,98951.31
2024-05-09T03:34:58.499Z,98945.34
2024-05-09T03:40:05.584Z,98856.69
2024-05-09T03:45:14.952Z,98942.34
2024-05-09T03:50:26.325Z,98873.53
2024-05-09T03:55:38.970Z,98950.66
2024-05-09T04:00:46.793Z,98943.16
2024-05-09T04:05:52.043Z,98874.00
2024-05-09T04:10:57.214Z,98960.28
2024-05-09T04:16:05.033Z,98702.06
2024-05-09T04:21:10.400Z,98961.38
2024-05-09T04:26:15.777Z,98918.94
2024-05-09T04:31:23.668Z,98955.69
2024-05-09T04:36:28.763Z,98956.06
2024-05-09T04:41:34.005Z,98965.75
2024-05-09T04:46:42.200Z,98903.88
2024-05-09T04:51:47.358Z,98970.47
2024-05-09T04:56:52.618Z,98826.78
2024-05-09T05:02:00.554Z,98934.13
2024-05-09T05:07:05.914Z,98747.91
2024-05-09T05:12:31.632Z,98938.88
2024-05-09T05:17:39.621Z,98999.38
2024-05-09T05:22:44.929Z,98986.13
2024-05-09T05:27:50.176Z,98989.31
2024-05-09T05:32:58.003Z,98801.69
2024-05-09T05:38:04.004Z,98993.13
2024-05-09T05:43:10.773Z,98912.50
2024-05-09T05:48:19.326Z,98992.06
2024-05-09T05:53:24.839Z,98696.19
2024-05-09T05:58:30.126Z,98685.63
2024-05-09T06:03:38.459Z,98731.25
2024-05-09T06:08:44.187Z,98936.38
2024-05-09T06:13:49.445Z,98975.63
2024-05-09T06:18:57.417Z,98963.50
2024-05-09T06:24:06.541Z,99022.00
2024-05-09T06:29:12.484Z,98859.38
2024-05-09T06:34:21.754Z,98853.56
2024-05-09T06:39:27.181Z,99005.56
2024-05-09T06:44:32.672Z,98925.78
2024-05-09T06:49:41.426Z,98691.66
2024-05-09T06:54:46.561Z,98969.28
2024-05-09T06:59:51.740Z,98856.50
2024-05-09T07:04:59.560Z,98959.03
2024-05-09T07:10:06.281Z,98996.16
2024-05-09T07:15:13.394Z,98994.72
2024-05-09T07:20:31.676Z,98911.13
2024-05-09T07:25:39.838Z,98949.25
2024-05-09T07:30:45.179Z,98966.38
2024-05-09T07:35:53.167Z,98987.53
2024-05-09T07:40:58.526Z,98987.91
2024-05-09T07:47:03.854Z,98837.78
2024-05-09T07:53:08.269Z,98972.38
2024-05-09T07:56:57.560Z,98643.09
2024-05-09T08:02:03.029Z,98932.63
2024-05-09T08:07:11.174Z,98975.56
2024-05-09T08:12:16.605Z,98957.34
2024-05-09T08:17:21.823Z,98968.19
2024-05-09T08:22:32.165Z,98941.19
2024-05-09T08:27:37.390Z,98924.13
2024-05-09T08:32:43.127Z,98950.78
2024-05-09T08:37:53.537Z,98934.06
2024-05-09T08:43:00.712Z,98939.84
2024-05-09T08:48:07.795Z,98815.94
2024-05-09T08:53:15.857Z,98949.31
2024-05-09T08:58:21.768Z,98825.78
2024-05-09T09:03:30.413Z,98946.41
2024-05-09T09:08:41.569Z,98939.34
2024-05-09T09:13:46.699Z,98941.53
2024-05-09T09:18:52.134Z,98932.44
2024-05-09T09:24:00.534Z,98879.09
2024-05-09T09:29:05.722Z,98907.84
2024-05-09T09:34:11.490Z,98832.69
2024-05-09T09:39:23.163Z,98682.78
2024-05-09T09:44:28.526Z,98802.47
2024-05-09T09:49:36.780Z,98904.22
2024-05-09T09:54:46.670Z,98917.59
2024-05-09T09:59:53.121Z,98865.28
2024-05-09T10:04:59.117Z,98913.81
2024-05-09T10:10:10.982Z,98912.16
2024-05-09T10:15:22.451Z,98913.97
2024-05-09T10:20:30.932Z,98902.88
2024-05-09T10:25:40.462Z,98904.16
2024-05-09T10:30:50.351Z,98887.03
2024-05-09T10:35:55.659Z,98861.06
2024-05-09T10:41:03.701Z,98894.31
2024-05-09T10:46:09.395Z,98848.19
2024-05-09T10:51:16.207Z,98799.06
2024-05-09T10:56:23.977Z,98707.59
2024-05-09T11:01:29.678Z,98870.13
2024-05-09T11:06:38.140Z,98637.44
2024-05-09T11:11:46.201Z,98820.88
2024-05-09T11:17:01.430Z,98856.03
2024-05-09T11:22:07.260Z,98838.31
2024-05-09T11:27:15.432Z,98797.09
2024-05-09T11:32:32.709Z,98842.03
2024-05-09T11:37:40.812Z,98795.50
2024-05-09T11:42:51.505Z,98639.53
2024-05-09T11:47:58.327Z,98836.97
2024-05-09T11:53:03.628Z,98830.34
2024-05-09T11:58:12.441Z,98782.53
2024-05-09T12:03:17.790Z,98607.66
2024-05-09T12:08:23.022Z,98475.81
2024-05-09T12:13:30.883Z,98769.41
2024-05-09T12:18:36.544Z,98659.91
2024-05-09T12:23:41.773Z,98797.06
2024-05-09T12:28:49.533Z,98796.50
2024-05-09T12:33:54.843Z,98791.03
2024-05-09T12:39:00.097Z,98793.94
2024-05-09T12:44:08.257Z,98711.06
2024-05-09T12:49:16.392Z,98585.13
2024-05-09T12:54:22.454Z,98737.41
2024-05-09T12:59:30.296Z,98761.78
2024-05-09T13:04:35.635Z,98733.22
2024-05-09T13:09:41.072Z,98724.50
2024-05-09T13:14:48.830Z,98767.91
2024-05-09T13:19:54.073Z,98743.59
2024-05-09T13:24:59.390Z,98749.25
2024-05-09T13:30:12.003Z,98753.84
2024-05-09T13:35:22.976Z,98753.69
2024-05-09T13:40:33.586Z,98742.69
2024-05-09T13:45:43.722Z,98712.69
2024-05-09T13:50:48.921Z,98696.84
2024-05-09T13:55:54.236Z,98628.28
2024-05-09T14:01:02.313Z,98721.69
2024-05-09T14:06:12.080Z,98716.69
2024-05-09T14:11:18.309Z,98676.00
2024-05-09T14:16:26.360Z,98667.25
2024-05-09T14:21:31.720Z,98658.19
2024-05-09T14:26:36.918Z,98709.53
2024-05-09T14:31:44.760Z,98653.00
2024-05-09T14:36:50.024Z,98659.63
2024-05-09T14:41:55.331Z,98617.09
2024-05-09T14:47:03.193Z,98667.09
2024-05-09T14:52:09.531Z,98600.38
2024-05-09T14:57:14.714Z,98576.81
2024-05-09T15:02:22.636Z,98556.53
2024-05-09T15:07:28.082Z,98619.63
2024-05-09T15:12:33.315Z,98647.63
2024-05-09T15:17:41.658Z,98468.97
2024-05-09T15:22:46.843Z,98651.22
2024-05-09T15:27:52.147Z,98630.09
2024-05-09T15:33:00.673Z,98595.25
2024-05-09T15:38:09.612Z,98614.66
2024-05-09T15:43:15.035Z,98634.91
2024-05-09T15:48:23.079Z,98454.84
2024-05-09T15:53:29.136Z,98629.44
2024-05-09T15:58:34.332Z,98592.16
2024-05-09T16:03:42.274Z,98419.78
2024-05-09T16:08:47.662Z,98619.50
2024-05-09T16:13:52.798Z,98623.31
2024-05-09T16:19:00.674Z,98581.03
2024-05-09T16:24:06.057Z,98612.78
2024-05-09T16:29:11.423Z,98578.03
2024-05-09T16:34:19.316Z,98601.97
2024-05-09T16:39:24.453Z,98576.25
2024-05-09T16:44:31.019Z,98600.41
2024-05-09T16:49:39.726Z,98607.50
2024-05-09T16:54:44.966Z,98605.31
2024-05-09T16:59:50.222Z,98605.56
2024-05-09T17:04:58.165Z,98520.88
2024-05-09T17:10:03.984Z,98545.00
2024-05-09T17:15:10.308Z,98587.25
2024-05-09T17:20:28.898Z,98583.66
2024-05-09T17:25:38.606Z,98567.25
2024-05-09T17:30:44.339Z,98599.91
2024-05-09T17:35:52.840Z,98557.13
2024-05-09T17:40:58.208Z,98612.00
2024-05-09T17:46:03.455Z,98547.25
2024-05-09T17:51:11.386Z,98577.41
2024-05-09T17:56:17.496Z,98530.78
2024-05-09T18:01:24.082Z,98578.50
2024-05-09T18:06:31.849Z,98611.13
2024-05-09T18:11:37.089Z,98569.56
2024-05-09T18:16:42.271Z,98564.16
2024-05-09T18:21:51.758Z,98569.28
2024-05-09T18:26:56.964Z,98618.19
2024-05-09T18:32:02.154Z,98607.78
2024-05-09T18:37:10.158Z,98628.56
2024-05-09T18:42:15.446Z,98544.72
2024-05-09T18:47:20.975Z,98523.69
2024-05-09T18:52:28.907Z,98624.22
2024-05-09T18:57:34.779Z,98521.50
2024-05-09T19:02:40.216Z,98592.56
2024-05-09T19:07:48.192Z,98598.19
2024-05-09T19:12:53.441Z,98648.28
2024-05-09T19:17:58.779Z,98585.53
2024-05-09T19:23:07.654Z,98660.28
2024-05-09T19:28:12.980Z,98666.50
2024-05-09T19:33:18.500Z,98655.91
2024-05-09T19:38:26.392Z,98609.66
2024-05-09T19:43:33.806Z,98651.94
2024-05-09T19:48:40.684Z,98623.03
2024-05-09T19:53:50.632Z,98639.81
2024-05-09T19:58:55.797Z,98601.75
2024-05-09T20:04:01.115Z,98667.69
2024-05-09T20:09:09.165Z,98661.47
2024-05-09T20:14:14.860Z,98669.91
2024-05-09T20:19:20.204Z,98665.56
2024-05-09T20:24:28.041Z,98591.72
2024-05-09T20:29:34.231Z,98677.19
2024-05-09T20:34:39.591Z,98675.31
2024-05-09T20:39:47.544Z,98635.72
2024-05-09T20:44:52.697Z,98682.88
2024-05-09T20:49:57.941Z,98653.09
2024-05-09T20:55:05.831Z,98632.84
2024-05-09T21:00:18.366Z,98671.72
2024-05-09T21:05:24.568Z,98626.59
2024-05-09T21:10:33.960Z,98628.47
2024-05-09T21:15:39.818Z,98672.66
2024-05-09T21:20:45.241Z,98674.13
2024-05-09T21:25:53.035Z,98667.72
2024-05-09T21:30:58.557Z,98664.47
2024-05-09T21:36:03.683Z,98658.78
2024-05-09T21:41:12.636Z,98639.44
2024-05-09T21:46:17.772Z,98442.84
2024-05-09T21:51:22.911Z,98663.53
2024-05-09T21:56:30.821Z,98583.38
2024-05-09T22:01:36.201Z,98470.56
2024-05-09T22:06:41.516Z,98564.75
2024-05-09T22:11:52.034Z,98634.47
2024-05-09T22:16:58.074Z,98663.59
2024-05-09T22:22:03.282Z,98640.44
2024-05-09T22:27:11.965Z,98643.75
2024-05-09T22:32:17.266Z,98657.59
2024-05-09T22:37:22.477Z,98614.31
2024-05-09T22:42:30.263Z,98616.47
2024-05-09T22:47:35.648Z,98567.00
2024-05-09T22:52:40.919Z,98604.56
2024-05-09T22:57:48.776Z,98658.59
2024-05-09T23:02:57.128Z,98659.88
2024-05-09T23:08:03.423Z,98638.34
2024-05-09T23:13:11.269Z,98671.13
2024-05-09T23:18:16.563Z,98643.38
2024-05-09T23:23:22.085Z,98607.28
2024-05-09T23:28:30.413Z,98607.28
2024-05-09T23:33:35.875Z,98664.19
2024-05-09T23:38:41.827Z,98667.34
2024-05-09T23:43:49.608Z,98661.31
2024-05-09T23:48:54.832Z,98640.97
2024-05-09T23:54:00.088Z,98643.25
2024-05-09T23:59:08.634Z,98641.22
